Time;durP1;ratioP1;P1;durP2;ratioP2;P2;SDS_P1;SDS_P2;PMS_P1;PMS_P2;Temp;Humidity;BMP_temperature;BMP_pressure;BME280_temperature;BME280_humidity;BME280_pressure;Samples;Min_cycle;Max_cycle;Signal;HPM_P1;HPM_P2
2023/03/27 00:00:35;;;;;;;13.10;2.25;;;;;;;;;;5072851;28;20378;-72
2023/03/27 00:03:01;;;;;;;15.80;2.05;;;;;;;;;;5065953;28;20029;-72
2023/03/27 00:05:27;;;;;;;13.98;2.03;;;;;;;;;;5056941;28;20043;-72
2023/03/27 00:07:54;;;;;;;13.95;2.03;;;;;;;;;;5054041;28;20025;-72
2023/03/27 00:10:21;;;;;;;12.55;2.38;;;;;;;;;;5054274;28;20028;-72
2023/03/27 00:12:47;;;;;;;10.20;2.30;;;;;;;;;;5054002;28;20029;-72
2023/03/27 00:15:15;;;;;;;7.97;2.15;;;;;;;;;;5054126;28;20035;-72
2023/03/27 00:17:43;;;;;;;11.43;2.10;;;;;;;;;;5055617;28;20017;-73
2023/03/27 00:20:09;;;;;;;10.77;1.85;;;;;;;;;;5055622;28;20141;-75
2023/03/27 00:22:35;;;;;;;15.98;2.25;;;;;;;;;;5053216;28;20028;-73
2023/03/27 00:25:01;;;;;;;11.23;2.20;;;;;;;;;;5055473;28;20037;-71
2023/03/27 00:27:27;;;;;;;7.47;1.80;;;;;;;;;;5056782;28;20029;-72
2023/03/27 00:29:53;;;;;;;12.05;1.80;;;;;;;;;;5038358;28;20399;-71
2023/03/27 00:32:19;;;;;;;17.98;2.60;;;;;;;;;;5054378;28;20028;-73
2023/03/27 00:34:45;;;;;;;13.93;1.95;;;;;;;;;;5053899;28;20025;-72
2023/03/27 00:37:11;;;;;;;7.07;1.95;;;;;;;;;;5054286;28;20021;-72
2023/03/27 00:39:39;;;;;;;9.48;2.00;;;;;;;;;;5058567;28;20043;-71
2023/03/27 00:42:05;;;;;;;10.60;1.73;;;;;;;;;;5059471;28;20052;-71
2023/03/27 00:44:36;;;;;;;14.98;2.00;;;;;;;;;;5067066;28;20029;-72
2023/03/27 00:47:03;;;;;;;9.98;2.47;;;;;;;;;;5067817;28;20060;-72
2023/03/27 00:49:32;;;;;;;13.80;2.17;;;;;;;;;;5055518;28;20025;-72
2023/03/27 00:51:59;;;;;;;14.60;2.00;;;;;;;;;;5053108;28;20029;-72
2023/03/27 00:54:28;;;;;;;10.00;2.13;;;;;;;;;;5053570;28;20035;-71
2023/03/27 00:56:56;;;;;;;7.15;2.00;;;;;;;;;;5053421;28;20032;-71
2023/03/27 00:59:24;;;;;;;9.07;1.70;;;;;;;;;;5053407;28;20032;-72
2023/03/27 01:01:50;;;;;;;10.77;1.95;;;;;;;;;;5053456;28;20025;-71
2023/03/27 01:04:20;;;;;;;15.95;2.33;;;;;;;;;;5054411;28;20026;-71
2023/03/27 01:06:47;;;;;;;15.25;1.67;;;;;;;;;;5053453;28;20506;-71
2023/03/27 01:09:13;;;;;;;13.13;1.80;;;;;;;;;;5053154;28;20029;-71
2023/03/27 01:11:48;;;;;;;14.50;2.40;;;;;;;;;;5053099;28;20025;-73
2023/03/27 01:14:15;;;;;;;13.75;2.10;;;;;;;;;;5052878;28;20036;-71
2023/03/27 01:16:59;;;;;;;14.90;2.00;;;;;;;;;;5052840;28;20032;-73
2023/03/27 01:19:25;;;;;;;12.30;2.23;;;;;;;;;;5052924;28;20119;-71
2023/03/27 01:22:03;;;;;;;14.57;1.77;;;;;;;;;;5052518;28;20021;-71
2023/03/27 01:24:54;;;;;;;13.88;2.25;;;;;;;;;;5053274;28;20383;-71
2023/03/27 01:27:36;;;;;;;14.40;2.03;;;;;;;;;;5052871;28;20033;-72
2023/03/27 01:30:08;;;;;;;9.20;2.20;;;;;;;;;;5053086;28;20086;-71
2023/03/27 01:32:43;;;;;;;10.20;2.28;;;;;;;;;;5052909;28;20035;-72
2023/03/27 01:35:19;;;;;;;9.32;1.67;;;;;;;;;;5054992;28;20390;-72
2023/03/27 01:37:46;;;;;;;12.40;2.05;;;;;;;;;;5055707;28;20383;-72
2023/03/27 01:40:26;;;;;;;14.88;1.75;;;;;;;;;;5055564;28;20028;-73
2023/03/27 01:43:04;;;;;;;9.43;2.35;;;;;;;;;;5037161;28;20490;-72
2023/03/27 01:45:35;;;;;;;12.80;2.42;;;;;;;;;;5055140;28;20072;-73
2023/03/27 01:48:07;;;;;;;16.02;2.78;;;;;;;;;;5055643;28;20476;-72
2023/03/27 01:50:42;;;;;;;11.10;2.50;;;;;;;;;;5033811;28;20029;-72
2023/03/27 01:53:35;;;;;;;15.57;2.50;;;;;;;;;;5052123;28;20542;-72
2023/03/27 01:56:30;;;;;;;12.25;2.67;;;;;;;;;;5049122;28;20045;-72
2023/03/27 01:59:02;;;;;;;11.45;3.17;;;;;;;;;;5052852;28;20487;-71
2023/03/27 02:01:32;;;;;;;12.88;3.22;;;;;;;;;;5052832;28;20021;-71
2023/03/27 02:04:01;;;;;;;11.00;2.65;;;;;;;;;;5052784;28;20025;-71
2023/03/27 02:06:32;;;;;;;19.13;2.83;;;;;;;;;;5054147;28;20021;-70
2023/03/27 02:09:17;;;;;;;16.05;2.40;;;;;;;;;;5054218;28;20027;-70
2023/03/27 02:11:46;;;;;;;16.35;2.72;;;;;;;;;;5053336;28;20028;-71
2023/03/27 02:14:15;;;;;;;13.85;3.28;;;;;;;;;;5052164;28;20568;-70
2023/03/27 02:16:44;;;;;;;21.75;4.53;;;;;;;;;;5052795;28;20091;-72
2023/03/27 02:19:18;;;;;;;19.77;3.53;;;;;;;;;;5059556;28;20482;-72
2023/03/27 02:21:46;;;;;;;18.57;2.50;;;;;;;;;;5055933;28;20421;-73
2023/03/27 02:24:14;;;;;;;13.25;2.30;;;;;;;;;;5072239;28;20082;-72
2023/03/27 02:26:40;;;;;;;18.27;2.50;;;;;;;;;;5071555;28;20034;-72
2023/03/27 02:29:19;;;;;;;11.23;2.30;;;;;;;;;;5072149;28;20056;-71
2023/03/27 02:32:11;;;;;;;9.57;1.80;;;;;;;;;;5071876;28;20023;-73
2023/03/27 02:35:00;;;;;;;15.38;2.15;;;;;;;;;;5073180;28;20028;-72
2023/03/27 02:37:44;;;;;;;7.97;1.70;;;;;;;;;;5072940;28;20112;-72
2023/03/27 02:40:18;;;;;;;11.55;2.80;;;;;;;;;;5072195;28;20044;-72
2023/03/27 02:42:49;;;;;;;12.30;2.00;;;;;;;;;;5071244;28;20426;-72
2023/03/27 02:45:33;;;;;;;11.63;2.13;;;;;;;;;;5074467;28;20104;-72
2023/03/27 02:48:21;;;;;;;12.23;2.40;;;;;;;;;;5058552;28;20071;-72
2023/03/27 02:50:53;;;;;;;10.48;2.00;;;;;;;;;;5076551;28;20027;-70
2023/03/27 02:53:22;;;;;;;9.93;1.70;;;;;;;;;;5075781;28;20067;-71
2023/03/27 02:55:56;;;;;;;12.50;1.75;;;;;;;;;;5076303;28;20029;-71
2023/03/27 02:58:48;;;;;;;7.53;2.22;;;;;;;;;;5076015;28;20490;-72
2023/03/27 03:01:16;;;;;;;12.43;2.00;;;;;;;;;;5071259;28;20074;-71
2023/03/27 03:03:52;;;;;;;12.63;2.50;;;;;;;;;;5074739;28;20393;-70
2023/03/27 03:06:19;;;;;;;10.90;2.00;;;;;;;;;;5075459;28;20028;-70
2023/03/27 03:08:45;;;;;;;10.75;2.00;;;;;;;;;;5075087;28;20150;-70
2023/03/27 03:11:13;;;;;;;9.02;1.90;;;;;;;;;;5075805;28;20505;-73
2023/03/27 03:13:40;;;;;;;14.02;2.33;;;;;;;;;;5075466;28;20563;-72
2023/03/27 03:16:06;;;;;;;9.55;1.92;;;;;;;;;;5076391;28;20017;-76
2023/03/27 03:18:32;;;;;;;14.95;2.30;;;;;;;;;;5077731;28;20025;-74
2023/03/27 03:20:58;;;;;;;9.50;2.33;;;;;;;;;;5075430;28;20031;-74
2023/03/27 03:23:25;;;;;;;20.00;2.10;;;;;;;;;;5075169;28;20095;-73
2023/03/27 03:25:55;;;;;;;12.85;2.17;;;;;;;;;;5075245;28;20129;-72
2023/03/27 03:28:24;;;;;;;10.93;2.17;;;;;;;;;;5075348;28;20021;-71
2023/03/27 03:30:52;;;;;;;15.07;2.67;;;;;;;;;;5075013;28;20027;-72
2023/03/27 03:33:18;;;;;;;10.93;2.05;;;;;;;;;;5074691;28;20520;-76
2023/03/27 03:35:48;;;;;;;14.57;2.10;;;;;;;;;;5074964;28;20032;-73
2023/03/27 03:38:23;;;;;;;7.03;2.08;;;;;;;;;;5075390;28;20082;-72
2023/03/27 03:40:49;;;;;;;13.73;2.33;;;;;;;;;;5056086;28;20032;-71
2023/03/27 03:43:15;;;;;;;18.60;3.75;;;;;;;;;;5054363;28;20021;-73
2023/03/27 03:45:41;;;;;;;18.05;5.13;;;;;;;;;;5073773;28;20111;-72
2023/03/27 03:48:07;;;;;;;17.38;3.17;;;;;;;;;;5074606;28;20036;-73
2023/03/27 03:50:33;;;;;;;15.52;2.70;;;;;;;;;;5076799;28;20088;-70
2023/03/27 03:52:59;;;;;;;10.73;2.58;;;;;;;;;;5075590;28;20086;-73
2023/03/27 03:55:25;;;;;;;18.63;2.55;;;;;;;;;;5073499;28;20474;-72
2023/03/27 03:57:52;;;;;;;14.00;2.70;;;;;;;;;;5077976;28;20040;-73
2023/03/27 04:00:18;;;;;;;14.18;2.25;;;;;;;;;;5085138;28;20070;-72
2023/03/27 04:02:44;;;;;;;12.23;2.33;;;;;;;;;;5076726;28;20023;-72
2023/03/27 04:05:10;;;;;;;19.52;3.13;;;;;;;;;;5077817;28;20055;-71
2023/03/27 04:07:38;;;;;;;10.25;2.22;;;;;;;;;;5074310;28;20032;-70
2023/03/27 04:10:04;;;;;;;11.50;2.85;;;;;;;;;;5074411;28;20108;-72
2023/03/27 04:12:30;;;;;;;15.85;2.35;;;;;;;;;;5069298;28;20031;-75
2023/03/27 04:14:56;;;;;;;17.15;3.17;;;;;;;;;;5063441;28;20142;-75
2023/03/27 04:17:25;;;;;;;13.43;3.53;;;;;;;;;;5063954;28;20035;-74
2023/03/27 04:19:53;;;;;;;15.73;4.90;;;;;;;;;;5065649;28;20510;-74
2023/03/27 04:22:21;;;;;;;16.08;3.65;;;;;;;;;;5065487;28;20021;-73
2023/03/27 04:24:49;;;;;;;14.98;3.00;;;;;;;;;;5063271;28;20028;-75
2023/03/27 04:27:15;;;;;;;26.70;4.63;;;;;;;;;;5068089;28;20377;-71
2023/03/27 04:29:42;;;;;;;18.95;2.78;;;;;;;;;;5073861;28;20342;-72
2023/03/27 04:32:11;;;;;;;23.85;4.03;;;;;;;;;;5077740;28;20319;-70
2023/03/27 04:34:39;;;;;;;21.33;3.70;;;;;;;;;;5058956;28;20417;-72
2023/03/27 04:37:05;;;;;;;13.57;3.10;;;;;;;;;;5074433;28;20032;-72
2023/03/27 04:39:38;;;;;;;11.73;2.92;;;;;;;;;;5074297;28;20024;-72
2023/03/27 04:42:04;;;;;;;15.88;3.28;;;;;;;;;;5073364;28;20572;-71
2023/03/27 04:44:30;;;;;;;22.17;3.13;;;;;;;;;;5073794;28;20028;-72
2023/03/27 04:47:00;;;;;;;19.42;3.20;;;;;;;;;;5073505;28;20025;-72
2023/03/27 04:49:26;;;;;;;14.75;3.55;;;;;;;;;;5073655;28;20027;-75
2023/03/27 04:51:52;;;;;;;13.80;3.40;;;;;;;;;;5070715;28;20025;-76
2023/03/27 04:54:21;;;;;;;17.08;3.28;;;;;;;;;;5055963;28;20029;-76
2023/03/27 04:56:47;;;;;;;14.40;3.05;;;;;;;;;;5052274;28;20052;-74
2023/03/27 04:59:14;;;;;;;22.80;3.45;;;;;;;;;;5065085;28;20032;-72
2023/03/27 05:01:40;;;;;;;20.45;4.07;;;;;;;;;;5073265;28;20378;-71
2023/03/27 05:04:06;;;;;;;15.00;3.35;;;;;;;;;;5072754;28;20032;-71
2023/03/27 05:06:33;;;;;;;15.50;3.08;;;;;;;;;;5072746;28;20032;-72
2023/03/27 05:08:59;;;;;;;21.15;3.78;;;;;;;;;;5073377;28;20028;-72
2023/03/27 05:11:25;;;;;;;12.27;4.13;;;;;;;;;;5072839;28;20044;-72
2023/03/27 05:13:51;;;;;;;19.52;3.30;;;;;;;;;;5072852;28;20037;-71
2023/03/27 05:16:17;;;;;;;11.77;2.85;;;;;;;;;;5073298;28;20027;-72
2023/03/27 05:18:46;;;;;;;11.18;2.80;;;;;;;;;;5073018;28;20474;-72
2023/03/27 05:21:12;;;;;;;11.32;3.22;;;;;;;;;;5076107;28;20505;-73
2023/03/27 05:23:38;;;;;;;16.92;3.47;;;;;;;;;;5053699;28;20092;-74
2023/03/27 05:26:05;;;;;;;13.48;2.83;;;;;;;;;;5047554;28;20029;-73
2023/03/27 05:28:31;;;;;;;22.25;3.47;;;;;;;;;;5050032;28;20032;-73
2023/03/27 05:30:57;;;;;;;17.67;3.33;;;;;;;;;;5066554;28;20064;-73
2023/03/27 05:33:23;;;;;;;16.35;3.30;;;;;;;;;;5065430;28;20486;-73
2023/03/27 05:35:51;;;;;;;12.00;3.03;;;;;;;;;;5056368;28;20021;-74
2023/03/27 05:38:17;;;;;;;16.55;3.47;;;;;;;;;;5069575;28;20111;-72
2023/03/27 05:40:43;;;;;;;14.23;3.53;;;;;;;;;;5065455;28;20027;-73
2023/03/27 05:43:09;;;;;;;13.20;3.30;;;;;;;;;;5061536;28;20029;-73
2023/03/27 05:45:35;;;;;;;13.18;3.88;;;;;;;;;;5062674;28;20064;-72
2023/03/27 05:48:02;;;;;;;13.25;2.83;;;;;;;;;;5065024;28;20485;-73
2023/03/27 05:50:29;;;;;;;19.02;3.05;;;;;;;;;;5064723;28;20028;-74
2023/03/27 05:52:56;;;;;;;17.02;3.30;;;;;;;;;;5063708;28;20031;-73
2023/03/27 05:55:23;;;;;;;17.15;2.95;;;;;;;;;;5065012;28;20081;-73
2023/03/27 05:57:50;;;;;;;15.32;2.95;;;;;;;;;;5060271;28;20025;-74
2023/03/27 06:00:24;;;;;;;18.20;3.05;;;;;;;;;;5067675;28;20029;-75
2023/03/27 06:02:50;;;;;;;;;;;;;;;;;;5064663;28;20016;-73
2023/03/27 06:05:17;;;;;;;17.27;3.70;;;;;;;;;;5063875;28;19904;-73
2023/03/27 06:07:43;;;;;;;18.88;3.33;;;;;;;;;;5061832;28;20024;-73
2023/03/27 06:10:10;;;;;;;14.65;3.85;;;;;;;;;;5061876;28;20078;-73
2023/03/27 06:12:36;;;;;;;19.73;4.05;;;;;;;;;;5062388;28;20131;-74
2023/03/27 06:15:04;;;;;;;18.73;3.65;;;;;;;;;;5066084;28;20500;-73
2023/03/27 06:17:30;;;;;;;11.80;3.08;;;;;;;;;;5068180;28;20410;-72
2023/03/27 06:19:56;;;;;;;16.30;3.92;;;;;;;;;;5061272;28;20320;-72
2023/03/27 06:22:22;;;;;;;19.95;3.85;;;;;;;;;;5048092;28;20025;-74
2023/03/27 06:24:48;;;;;;;11.00;3.60;;;;;;;;;;5060771;28;20035;-76
2023/03/27 06:27:15;;;;;;;17.83;3.85;;;;;;;;;;5063083;28;20032;-72
2023/03/27 06:29:41;;;;;;;19.50;4.65;;;;;;;;;;5052880;28;20041;-72
2023/03/27 06:32:07;;;;;;;17.27;3.50;;;;;;;;;;5051377;28;20544;-72
2023/03/27 06:34:33;;;;;;;18.77;3.63;;;;;;;;;;5051479;28;20482;-72
2023/03/27 06:37:03;;;;;;;14.90;3.72;;;;;;;;;;5053444;28;20021;-72
2023/03/27 06:39:29;;;;;;;14.88;3.92;;;;;;;;;;5054048;28;20017;-71
2023/03/27 06:41:56;;;;;;;19.77;4.32;;;;;;;;;;5053483;28;20032;-71
2023/03/27 06:44:22;;;;;;;24.40;3.15;;;;;;;;;;5054906;28;20406;-70
2023/03/27 06:46:48;;;;;;;20.38;3.30;;;;;;;;;;5055426;28;20026;-73
2023/03/27 06:49:14;;;;;;;12.18;3.22;;;;;;;;;;5057219;28;20173;-79
2023/03/27 06:51:40;;;;;;;9.95;2.47;;;;;;;;;;5065271;28;20009;-78
2023/03/27 06:54:07;;;;;;;10.77;2.53;;;;;;;;;;5042262;28;20402;-72
2023/03/27 06:56:33;;;;;;;16.48;2.72;;;;;;;;;;5056132;28;20029;-72
2023/03/27 06:58:59;;;;;;;16.58;2.70;;;;;;;;;;5053258;28;20021;-73
2023/03/27 07:01:25;;;;;;;13.15;2.63;;;;;;;;;;5054434;28;20021;-72
2023/03/27 07:03:52;;;;;;;9.93;2.80;;;;;;;;;;5053678;28;20359;-73
2023/03/27 07:06:18;;;;;;;15.85;2.85;;;;;;;;;;5054336;28;20178;-72
2023/03/27 07:08:44;;;;;;;17.83;2.78;;;;;;;;;;5054291;28;20021;-72
2023/03/27 07:11:10;;;;;;;17.50;3.10;;;;;;;;;;5033548;28;20021;-72
2023/03/27 07:13:36;;;;;;;16.63;3.05;;;;;;;;;;5033163;28;20043;-71
2023/03/27 07:16:02;;;;;;;14.65;2.70;;;;;;;;;;5051545;28;20024;-69
2023/03/27 07:18:28;;;;;;;13.57;3.00;;;;;;;;;;5051645;28;20541;-71
2023/03/27 07:20:54;;;;;;;13.30;2.97;;;;;;;;;;5051536;28;20025;-71
2023/03/27 07:23:20;;;;;;;19.98;3.88;;;;;;;;;;5050799;28;20021;-72
2023/03/27 07:25:48;;;;;;;25.08;6.22;;;;;;;;;;5051044;28;20028;-71
2023/03/27 07:28:17;;;;;;;16.55;3.85;;;;;;;;;;5050786;28;20415;-73
2023/03/27 07:30:43;;;;;;;14.48;3.00;;;;;;;;;;5052492;28;20513;-71
2023/03/27 07:33:09;;;;;;;10.90;2.72;;;;;;;;;;5054391;28;20100;-72
2023/03/27 07:35:45;;;;;;;10.13;2.38;;;;;;;;;;5073645;28;20032;-71
2023/03/27 07:38:12;;;;;;;17.45;2.55;;;;;;;;;;5075250;28;20034;-71
2023/03/27 07:40:39;;;;;;;15.73;2.47;;;;;;;;;;5074687;28;20025;-72
2023/03/27 07:43:07;;;;;;;18.88;2.63;;;;;;;;;;5072701;28;20021;-72
2023/03/27 07:45:34;;;;;;;10.90;1.92;;;;;;;;;;5052482;28;20029;-71
2023/03/27 07:48:11;;;;;;;12.60;2.72;;;;;;;;;;5054041;28;20047;-70
2023/03/27 07:50:37;;;;;;;15.35;2.67;;;;;;;;;;5054584;28;20324;-73
2023/03/27 07:53:05;;;;;;;10.93;2.13;;;;;;;;;;5056188;28;20143;-71
2023/03/27 07:55:31;;;;;;;9.40;2.10;;;;;;;;;;5058375;28;20021;-73
2023/03/27 07:57:57;;;;;;;11.80;1.85;;;;;;;;;;5054918;28;20047;-71
2023/03/27 08:00:23;;;;;;;8.30;1.67;;;;;;;;;;5054295;28;20486;-70
2023/03/27 08:02:49;;;;;;;7.38;2.00;;;;;;;;;;5054525;28;20514;-72
2023/03/27 08:05:15;;;;;;;6.85;1.75;;;;;;;;;;5054469;28;20103;-70
2023/03/27 08:07:44;;;;;;;12.00;2.42;;;;;;;;;;5058452;28;20078;-71
2023/03/27 08:10:10;;;;;;;9.65;2.13;;;;;;;;;;5057639;28;20389;-71
2023/03/27 08:12:36;;;;;;;7.15;2.17;;;;;;;;;;5054316;28;20039;-71
2023/03/27 08:15:03;;;;;;;9.50;1.77;;;;;;;;;;5054554;28;20025;-70
2023/03/27 08:17:30;;;;;;;15.07;2.17;;;;;;;;;;5054891;28;20052;-71
2023/03/27 08:19:56;;;;;;;14.63;1.70;;;;;;;;;;5054840;28;20021;-71
2023/03/27 08:22:23;;;;;;;10.88;1.70;;;;;;;;;;5055012;28;20044;-71
2023/03/27 08:24:49;;;;;;;14.40;1.90;;;;;;;;;;5055280;28;20029;-70
2023/03/27 08:27:16;;;;;;;13.07;2.28;;;;;;;;;;5054781;28;20033;-71
2023/03/27 08:29:42;;;;;;;11.02;2.05;;;;;;;;;;5055133;28;20032;-71
2023/03/27 08:32:12;;;;;;;10.20;1.95;;;;;;;;;;5055081;28;20028;-70
2023/03/27 08:34:39;;;;;;;10.30;1.73;;;;;;;;;;5053825;28;20024;-71
2023/03/27 08:37:05;;;;;;;10.55;1.77;;;;;;;;;;5053701;28;20437;-72
2023/03/27 08:39:31;;;;;;;9.32;1.90;;;;;;;;;;5054916;28;20032;-71
2023/03/27 08:41:58;;;;;;;16.63;1.90;;;;;;;;;;5054553;28;20029;-73
2023/03/27 08:44:25;;;;;;;10.07;1.52;;;;;;;;;;5054655;28;20125;-71
2023/03/27 08:46:55;;;;;;;11.75;1.90;;;;;;;;;;5054407;28;20083;-72
2023/03/27 08:49:22;;;;;;;11.75;1.83;;;;;;;;;;5054758;28;20028;-74
2023/03/27 08:52:08;;;;;;;8.93;1.95;;;;;;;;;;5054332;28;20162;-74
2023/03/27 08:54:36;;;;;;;12.20;1.80;;;;;;;;;;5054345;28;20029;-72
2023/03/27 08:57:02;;;;;;;12.50;1.55;;;;;;;;;;5053426;28;20434;-71
2023/03/27 08:59:30;;;;;;;10.63;1.60;;;;;;;;;;5053978;28;20523;-73
2023/03/27 09:02:15;;;;;;;12.15;1.75;;;;;;;;;;5053010;28;20021;-71
2023/03/27 09:04:48;;;;;;;10.23;1.67;;;;;;;;;;5053408;28;20048;-72
2023/03/27 09:07:26;;;;;;;14.13;2.13;;;;;;;;;;5053373;28;20372;-74
2023/03/27 09:09:54;;;;;;;9.50;1.85;;;;;;;;;;5053613;28;20020;-72
2023/03/27 09:12:39;;;;;;;8.35;1.50;;;;;;;;;;5053179;28;20160;-72
2023/03/27 09:15:06;;;;;;;9.73;1.60;;;;;;;;;;5054517;28;20108;-71
2023/03/27 09:17:35;;;;;;;7.20;1.50;;;;;;;;;;5053902;28;20364;-76
2023/03/27 09:20:21;;;;;;;6.10;1.30;;;;;;;;;;5061441;28;20036;-71
2023/03/27 09:22:51;;;;;;;9.38;1.27;;;;;;;;;;5075229;28;20017;-76
2023/03/27 09:25:23;;;;;;;8.57;1.65;;;;;;;;;;5072885;28;20070;-74
2023/03/27 09:27:51;;;;;;;6.97;1.40;;;;;;;;;;5072566;28;20056;-71
2023/03/27 09:30:20;;;;;;;4.68;1.00;;;;;;;;;;5073187;28;20017;-72
2023/03/27 09:32:47;;;;;;;5.68;1.30;;;;;;;;;;5072673;28;20031;-71
2023/03/27 09:35:19;;;;;;;9.73;1.73;;;;;;;;;;5072805;28;20070;-72
2023/03/27 09:37:45;;;;;;;7.07;1.60;;;;;;;;;;5073743;28;20478;-72
2023/03/27 09:40:22;;;;;;;5.05;0.95;;;;;;;;;;5073920;28;20028;-71
2023/03/27 09:42:49;;;;;;;3.42;1.08;;;;;;;;;;5072629;28;20077;-72
2023/03/27 09:45:15;;;;;;;4.18;1.40;;;;;;;;;;5072604;28;20498;-72
2023/03/27 09:47:50;;;;;;;6.05;2.30;;;;;;;;;;5073154;28;20111;-72
2023/03/27 09:50:25;;;;;;;3.05;1.00;;;;;;;;;;5074956;28;20032;-73
2023/03/27 09:52:53;;;;;;;7.47;1.70;;;;;;;;;;5072972;28;20601;-72
2023/03/27 09:55:22;;;;;;;6.72;1.70;;;;;;;;;;5076330;28;20024;-74
2023/03/27 09:57:48;;;;;;;6.65;1.73;;;;;;;;;;5062904;28;20024;-74
2023/03/27 10:00:32;;;;;;;5.68;1.23;;;;;;;;;;5059146;28;20028;-77
2023/03/27 10:03:02;;;;;;;11.15;1.60;;;;;;;;;;5088122;28;20073;-77
2023/03/27 10:05:30;;;;;;;4.25;1.10;;;;;;;;;;5085691;28;20020;-78
2023/03/27 10:07:57;;;;;;;7.05;2.10;;;;;;;;;;5086499;28;20028;-71
2023/03/27 10:10:25;;;;;;;9.15;2.10;;;;;;;;;;5087876;28;20551;-72
2023/03/27 10:12:54;;;;;;;4.50;1.23;;;;;;;;;;5085810;28;20016;-74
2023/03/27 10:15:30;;;;;;;7.10;1.42;;;;;;;;;;5072749;28;20020;-72
2023/03/27 10:17:56;;;;;;;12.85;1.30;;;;;;;;;;5072300;28;20431;-72
2023/03/27 10:20:22;;;;;;;7.72;1.20;;;;;;;;;;5073326;28;20027;-73
2023/03/27 10:22:55;;;;;;;5.97;1.30;;;;;;;;;;5072856;28;20394;-73
2023/03/27 10:25:27;;;;;;;9.38;1.85;;;;;;;;;;5072757;28;20486;-73
2023/03/27 10:27:54;;;;;;;7.00;1.58;;;;;;;;;;5072502;28;20020;-73
2023/03/27 10:30:48;;;;;;;8.70;1.27;;;;;;;;;;5071812;28;20028;-74
2023/03/27 10:33:28;;;;;;;6.18;1.27;;;;;;;;;;5068330;28;20409;-72
2023/03/27 10:35:54;;;;;;;5.18;1.00;;;;;;;;;;5071510;28;20035;-73
2023/03/27 10:38:21;;;;;;;6.15;1.20;;;;;;;;;;5053447;28;20026;-72
2023/03/27 10:40:49;;;;;;;4.43;1.05;;;;;;;;;;5071694;28;20025;-71
2023/03/27 10:43:30;;;;;;;7.15;2.00;;;;;;;;;;5071864;28;20021;-72
2023/03/27 10:45:58;;;;;;;4.22;0.90;;;;;;;;;;5072976;28;20017;-73
2023/03/27 10:48:39;;;;;;;3.67;1.10;;;;;;;;;;5072787;28;20056;-73
2023/03/27 10:51:06;;;;;;;2.63;0.90;;;;;;;;;;5074623;28;20494;-75
2023/03/27 10:53:38;;;;;;;5.40;1.60;;;;;;;;;;5073760;28;20080;-73
2023/03/27 10:56:18;;;;;;;5.90;1.00;;;;;;;;;;5072875;28;20078;-73
2023/03/27 10:58:47;;;;;;;6.40;2.35;;;;;;;;;;5073123;28;20016;-72
2023/03/27 11:01:20;;;;;;;4.47;1.77;;;;;;;;;;5073573;28;20035;-73
2023/03/27 11:03:51;;;;;;;2.95;1.20;;;;;;;;;;5074047;28;20489;-70
2023/03/27 11:06:18;;;;;;;2.75;0.95;;;;;;;;;;5074313;28;20546;-71
2023/03/27 11:08:51;;;;;;;2.47;1.10;;;;;;;;;;5071579;28;20020;-71
2023/03/27 11:11:20;;;;;;;1.90;0.68;;;;;;;;;;5037324;28;20021;-71
2023/03/27 11:13:47;;;;;;;1.75;0.70;;;;;;;;;;5055315;28;20092;-72
2023/03/27 11:16:14;;;;;;;3.85;0.95;;;;;;;;;;5055620;28;20033;-73
2023/03/27 11:19:03;;;;;;;2.17;0.90;;;;;;;;;;5055368;28;20135;-72
2023/03/27 11:21:35;;;;;;;2.10;0.77;;;;;;;;;;5042273;28;20430;-71
2023/03/27 11:24:02;;;;;;;5.13;1.05;;;;;;;;;;5054815;28;20408;-72
2023/03/27 11:26:46;;;;;;;6.03;1.40;;;;;;;;;;5055061;28;20025;-72
2023/03/27 11:29:16;;;;;;;2.92;1.30;;;;;;;;;;5055128;28;20387;-73
2023/03/27 11:31:44;;;;;;;3.83;1.30;;;;;;;;;;5055070;28;20021;-73
2023/03/27 11:34:14;;;;;;;5.25;1.20;;;;;;;;;;5054770;28;20082;-72
2023/03/27 11:36:40;;;;;;;7.45;1.45;;;;;;;;;;5054567;28;20032;-72
2023/03/27 11:39:14;;;;;;;9.40;1.80;;;;;;;;;;5054668;28;20032;-72
2023/03/27 11:41:40;;;;;;;4.77;1.40;;;;;;;;;;5054725;28;20029;-71
2023/03/27 11:44:08;;;;;;;2.13;0.85;;;;;;;;;;5054274;28;20029;-72
2023/03/27 11:46:47;;;;;;;4.47;1.08;;;;;;;;;;5054584;28;20036;-72
2023/03/27 11:49:29;;;;;;;4.15;1.30;;;;;;;;;;5055240;28;20025;-71
2023/03/27 11:52:14;;;;;;;3.60;0.75;;;;;;;;;;5054272;28;20031;-74
2023/03/27 11:54:39;;;;;;;;;;;;;;;;;;5056427;28;20106;-72
2023/03/27 11:57:12;;;;;;;1.70;0.75;;;;;;;;;;5054771;28;19912;-72
2023/03/27 11:59:56;;;;;;;3.15;0.85;;;;;;;;;;5060816;28;20065;-72
2023/03/27 12:02:40;;;;;;;2.80;0.93;;;;;;;;;;5063077;28;20029;-73
2023/03/27 12:05:25;;;;;;;2.60;0.65;;;;;;;;;;5061910;28;20036;-77
2023/03/27 12:07:57;;;;;;;4.80;1.00;;;;;;;;;;5040407;28;20199;-76
2023/03/27 12:10:26;;;;;;;2.53;0.70;;;;;;;;;;5059459;28;20021;-77
2023/03/27 12:13:24;;;;;;;6.07;1.15;;;9.60;99.90;;;;;;5039133;28;20609;-77
2023/03/27 12:16:16;;;;;;;3.90;1.80;;;20.20;99.90;;;;;;5037182;28;20036;-77
2023/03/27 12:19:00;;;;;;;3.92;1.25;;;21.20;2.00;;;;;;5053806;28;20045;-77
2023/03/27 12:22:09;;;;;;;7.53;1.10;;;22.30;1.00;;;;;;5057506;28;20048;-79
2023/03/27 12:25:11;;;;;;;4.03;1.33;;;23.50;1.00;;;;;;5053873;28;20029;-76
2023/03/27 12:28:16;;;;;;;8.60;1.30;;;24.00;1.00;;;;;;5055054;28;20382;-76
2023/03/27 12:31:01;;;;;;;5.93;1.38;;;24.10;1.00;;;;;;5054912;28;20025;-75
2023/03/27 12:33:49;;;;;;;5.30;1.13;;;22.90;1.00;;;;;;5054446;28;20021;-74
2023/03/27 12:36:21;;;;;;;3.67;1.15;;;;;;;;;;5054450;28;20501;-75
2023/03/27 12:38:47;;;;;;;6.40;2.22;;;;;;;;;;5038781;28;20064;-77
2023/03/27 12:41:29;;;;;;;3.90;1.60;;;;;;;;;;5057271;28;20090;-80
2023/03/27 12:43:57;;;;;;;6.85;1.30;;;;;;;;;;5058946;28;20028;-77
2023/03/27 12:46:23;;;;;;;11.93;1.33;;;;;;;;;;5058707;28;20021;-76
2023/03/27 12:48:49;;;;;;;7.18;1.38;;;;;;;;;;5036605;28;20533;-76
2023/03/27 12:51:19;;;;;;;9.75;1.67;;;;;;;;;;5054951;28;20032;-76
2023/03/27 12:53:46;;;;;;;5.03;1.17;;;;;;;;;;5057967;28;20016;-79
2023/03/27 12:56:16;;;;;;;7.15;1.35;;;;;;;;;;5055923;28;20059;-76
2023/03/27 12:58:43;;;;;;;7.75;2.20;;;;;;;;;;5054940;28;20029;-76
2023/03/27 13:01:11;;;;;;;5.20;1.50;;;;;;;;;;5053894;28;20529;-71
2023/03/27 13:03:55;;;;;;;8.68;1.50;;;;;;;;;;5052944;28;20028;-73
2023/03/27 13:06:43;;;;;;;7.78;1.40;;;;;;;;;;5055073;28;20032;-72
2023/03/27 13:09:30;;;;;;;8.98;1.52;;;;;;;;;;5061341;28;20390;-71
2023/03/27 13:12:04;;;;;;;9.48;1.67;;;;;;;;;;5060571;28;20028;-73
2023/03/27 13:14:33;;;;;;;5.05;1.13;;;;;;;;;;5063866;28;20386;-71
2023/03/27 13:17:10;;;;;;;8.02;1.83;;;;;;;;;;5065181;28;20092;-72
2023/03/27 13:19:41;;;;;;;9.07;2.20;;;;;;;;;;5062742;28;20475;-71
2023/03/27 13:22:16;;;;;;;8.18;1.83;;;;;;;;;;5061974;28;20021;-71
2023/03/27 13:24:42;;;;;;;5.32;1.20;;;;;;;;;;5058565;28;20581;-71
2023/03/27 13:27:08;;;;;;;5.15;1.55;;;;;;;;;;5064082;28;20099;-71
2023/03/27 13:29:34;;;;;;;7.32;1.35;;;;;;;;;;5062696;28;20143;-71
2023/03/27 13:32:27;;;;;;;8.88;1.50;;;;;;;;;;5064137;28;20544;-72
2023/03/27 13:35:03;;;;;;;9.05;1.60;;;;;;;;;;5033631;28;20060;-73
2023/03/27 13:37:29;;;;;;;10.30;1.75;;;;;;;;;;5055205;28;20033;-72
2023/03/27 13:39:55;;;;;;;7.75;2.03;;;16.40;1.00;;;;;;5052515;28;20066;-72
2023/03/27 13:42:31;;;;;;;7.20;1.80;;;21.30;1.00;;;;;;5052018;28;20052;-70
2023/03/27 13:45:02;;;;;;;9.63;2.03;;;22.30;1.00;;;;;;5052469;28;20087;-73
2023/03/27 13:47:34;;;;;;;7.78;1.40;;;23.40;1.00;;;;;;5052566;28;20391;-72
2023/03/27 13:50:42;;;;;;;8.23;1.52;;;23.40;1.00;;;;;;5052700;28;20033;-72
2023/03/27 13:53:36;;;;;;;6.95;1.40;;;22.40;1.00;;;;;;5052251;28;20029;-71
2023/03/27 13:56:10;;;;;;;9.05;1.40;;;21.90;99.90;;;;;;5052120;28;20036;-72
2023/03/27 13:58:57;;;;;;;6.55;1.60;;;21.30;99.90;;;;;;5052695;28;20087;-72
2023/03/27 14:01:36;;;;;;;6.57;1.50;;;;;;;;;;5052803;28;20051;-71
2023/03/27 14:04:08;;;;;;;8.45;1.90;;;;;;;;;;5052375;28;20104;-74
2023/03/27 14:06:42;;;;;;;5.60;1.65;;;;;;;;;;5051873;28;20548;-72
2023/03/27 14:09:12;;;;;;;8.82;1.52;;;;;;;;;;5052093;28;20493;-73
2023/03/27 14:11:38;;;;;;;11.10;2.45;;;;;;;;;;5052222;28;20060;-72
2023/03/27 14:14:15;;;;;;;6.18;1.63;;;;;;;;;;5051257;28;20030;-72
2023/03/27 14:16:54;;;;;;;11.38;1.80;;;;;;;;;;5051754;28;20029;-73
2023/03/27 14:19:26;;;;;;;10.40;1.83;;;;;;;;;;5052267;28;20109;-74
2023/03/27 14:22:03;;;;;;;7.63;1.60;;;;;;;;;;5051763;28;20120;-72
2023/03/27 14:24:43;;;;;;;7.32;1.58;;;;;;;;;;5051801;28;20429;-72
2023/03/27 14:27:11;;;;;;;8.32;1.85;;;;;;;;;;5051569;28;20025;-72
2023/03/27 14:29:37;;;;;;;9.32;1.85;;;;;;;;;;5051514;28;20033;-72
2023/03/27 14:32:06;;;;;;;10.35;2.15;;;;;;;;;;5051323;28;20108;-71
2023/03/27 14:34:34;;;;;;;6.45;1.52;;;;;;;;;;5052142;28;20363;-72
2023/03/27 14:37:00;;;;;;;14.25;1.65;;;;;;;;;;5051920;28;20021;-71
2023/03/27 14:39:27;;;;;;;4.45;1.27;;;;;;;;;;5051272;28;20028;-72
2023/03/27 14:41:54;;;;;;;14.20;2.55;;;;;;;;;;5051461;28;20020;-73
2023/03/27 14:44:21;;;;;;;7.30;1.70;;;;;;;;;;5051571;28;20487;-72
2023/03/27 14:46:48;;;;;;;6.45;1.90;;;;;;;;;;5051339;28;20422;-73
2023/03/27 14:49:18;;;;;;;15.80;2.30;;;;;;;;;;5051654;28;20020;-73
2023/03/27 14:51:46;;;;;;;9.88;2.03;;;;;;;;;;5051499;28;20025;-73